Housho Maru — JD2281 — position and weather

sailwx.info

Track history (hours):
 
Tides and Currents Weather Stations Pressure Air Temp Water Temp Dewpoint Dewpoint Depression Visibility Wind Speed Wind Dir Waves Ship Positions

Housho Maru

Last reported at 2017-Dec-15 07:59 UTC. Time now 2017-Dec-15 08:26 UTC.
Position N 35°03' E 136°53'.

Length 165 m; draft 6.2 m.

Type: Cargo ship. MMSI: 431200703.

Date/timePositionNaut miles runAvg speedWind from/ knotsBaromVisibWave heightAir tempDewpointWater temp
2017-Dec-15 07:59N 35°03' E 136°53'0 0.0
2017-Dec-15 07:29N 35°03' E 136°53'0 0.0
2017-Dec-15 06:59N 35°03' E 136°53'0 0.0
2017-Dec-15 06:29N 35°03' E 136°53'0 0.0
2017-Dec-15 05:59N 35°03' E 136°53'0 0.0
2017-Dec-15 05:29N 35°03' E 136°53'0 0.0
2017-Dec-15 04:59N 35°03' E 136°53'2 4.3
2017-Dec-15 04:30N 35°02' E 136°51'1019.1
2017-Dec-15 04:00N 34°53' E 136°47'2314.8
2017-Dec-15 02:29N 34°43' E 137°12'12 1.5
2017-Dec-14 18:28N 34°33' E 137°05'817.0
2017-Dec-14 18:00N 34°32' E 137°15'2117.0
2017-Dec-14 16:48N 34°32' E 137°40'516.7
2017-Dec-14 16:30N 34°32' E 137°46'816.9
2017-Dec-14 16:00N 34°31' E 137°56'1716.5
2017-Dec-14 15:00N 34°31' E 138°16'916.6
2017-Dec-14 14:29N 34°32' E 138°27'815.9
2017-Dec-14 14:00N 34°32' E 138°36'815.1
2017-Dec-14 13:30N 34°32' E 138°45'815.1
2017-Dec-14 13:00N 34°32' E 138°54'815.0
2017-Dec-14 12:30N 34°36' E 139°02'816.5
2017-Dec-14 12:00N 34°41' E 139°09'815.3
2017-Dec-14 11:30N 34°47' E 139°16'815.4
2017-Dec-14 11:00N 34°52' E 139°23'816.6
2017-Dec-14 10:30N 34°58' E 139°30'816.8
2017-Dec-14 10:00N 35°03' E 139°38'917.5
2017-Dec-14 09:30N 35°10' E 139°45'713.3
2017-Dec-14 09:00N 35°16' E 139°46'611.8
2017-Dec-14 08:30N 35°21' E 139°42'3 6.2
2017-Dec-14 08:00N 35°23' E 139°39'0 0.0
2017-Dec-14 07:30N 35°23' E 139°39'0 0.0
2017-Dec-14 06:59N 35°23' E 139°39'0 0.0
2017-Dec-14 06:30N 35°23' E 139°39'0 0.0
2017-Dec-14 06:00N 35°23' E 139°39'0 0.0
2017-Dec-14 05:30N 35°23' E 139°39'0 0.0
2017-Dec-14 04:59N 35°23' E 139°39'0 0.0
2017-Dec-14 04:30N 35°23' E 139°39'0 0.0
2017-Dec-14 03:59N 35°23' E 139°39'0 0.0
2017-Dec-14 03:30N 35°23' E 139°39'0 0.0
2017-Dec-14 03:00N 35°23' E 139°39'0 0.0
2017-Dec-14 02:30N 35°23' E 139°39'0 0.0
2017-Dec-14 02:00N 35°23' E 139°39'0 0.0
2017-Dec-14 01:29N 35°23' E 139°39'0 0.0
2017-Dec-14 01:00N 35°23' E 139°39'1 1.4
2017-Dec-14 00:31N 35°24' E 139°40'713.1
2017-Dec-14 00:00N 35°18' E 139°44'611.8
2017-Dec-13 23:30N 35°13' E 139°47'815.6
2017-Dec-13 23:00N 35°05' E 139°45'816.0
2017-Dec-13 22:30N 34°57' E 139°44'815.5
2017-Dec-13 22:00N 34°51' E 139°50'917.5
2017-Dec-13 21:28N 34°54' E 140°01'1018.2
2017-Dec-13 20:56N 34°59' E 140°11'8 0.3
2017-Dec-12 13:13N 35°04' E 140°20'521.9
2017-Dec-12 13:00N 35°02' E 140°15'1121.5
2017-Dec-12 12:30N 34°55' E 140°04'1120.8
2017-Dec-12 12:00N 34°51' E 139°52'1019.2
2017-Dec-12 11:28N 34°58' E 139°43'918.7
2017-Dec-12 11:01N 35°06' E 139°44'815.3
2017-Dec-12 10:30N 35°14' E 139°46'612.2
2017-Dec-12 10:00N 35°19' E 139°43'612.2
2017-Dec-12 09:30N 35°25' E 139°44'510.8
2017-Dec-12 09:00N 35°30' E 139°46'0 0.1
2017-Dec-12 08:29N 35°30' E 139°46'0 0.0
2017-Dec-12 07:58N 35°30' E 139°46'0 0.0
2017-Dec-12 07:29N 35°30' E 139°46'0 0.0
2017-Dec-12 06:59N 35°30' E 139°46'0 0.0
2017-Dec-12 06:16N 35°30' E 139°46'0 0.0
2017-Dec-12 05:59N 35°30' E 139°46'0 0.0
2017-Dec-12 05:30N 35°30' E 139°46'3 5.3
2017-Dec-12 05:01N 35°29' E 139°43'3 6.7
2017-Dec-12 04:30N 35°26' E 139°43'4 8.2
2017-Dec-12 04:00N 35°23' E 139°39'0 0.1
2017-Dec-12 03:30N 35°23' E 139°39'0 0.0
2017-Dec-12 03:00N 35°23' E 139°39'0 0.0
2017-Dec-12 02:30N 35°23' E 139°39'0 0.0
2017-Dec-12 01:57N 35°23' E 139°39'0 0.0
2017-Dec-12 01:27N 35°23' E 139°39'0 0.0
2017-Dec-12 01:00N 35°23' E 139°39'0 0.0
2017-Dec-12 00:27N 35°23' E 139°39'0 0.0
2017-Dec-12 00:00N 35°23' E 139°39'0 0.0
2017-Dec-11 23:30N 35°23' E 139°39'0 0.0
2017-Dec-11 22:57N 35°23' E 139°39'0 0.0
2017-Dec-11 22:30N 35°23' E 139°39'0 0.9
2017-Dec-11 22:00N 35°24' E 139°39'510.7
2017-Dec-11 21:30N 35°20' E 139°43'612.0
2017-Dec-11 21:00N 35°14' E 139°47'815.5
2017-Dec-11 20:30N 35°07' E 139°44'817.1
2017-Dec-11 20:01N 35°01' E 139°37'917.5
2017-Dec-11 19:31N 34°55' E 139°29'1019.1
2017-Dec-11 19:00N 34°49' E 139°20'1218.9
2017-Dec-11 18:23N 34°41' E 139°09'819.0
2017-Dec-11 17:59N 34°36' E 139°02'918.9
2017-Dec-11 17:31N 34°32' E 138°53'1020.1
2017-Dec-11 16:59N 34°31' E 138°40'1019.9
2017-Dec-11 16:30N 34°31' E 138°28'1019.6
2017-Dec-11 16:01N 34°31' E 138°17'1119.9
2017-Dec-11 15:28N 34°31' E 138°03'1119.7
2017-Dec-11 14:54N 34°31' E 137°50'919.2
2017-Dec-11 14:28N 34°31' E 137°40'1319.5
2017-Dec-11 13:48N 34°32' E 137°24'619.8
2017-Dec-11 13:30N 34°32' E 137°17'1019.7
2017-Dec-11 13:00N 34°32' E 137°05'612.9
2017-Dec-11 12:30N 34°35' E 136°58'714.0
2017-Dec-11 12:00N 34°39' E 136°51'1020.0
2017-Dec-11 11:31N 34°48' E 136°46'1019.3
2017-Dec-11 11:00N 34°58' E 136°48'713.9
2017-Dec-11 10:30N 35°03' E 136°53'0 0.4
2017-Dec-11 09:55N 35°03' E 136°53'0 0.0
2017-Dec-11 09:25N 35°03' E 136°53'0 0.0
2017-Dec-11 08:55N 35°03' E 136°53'0 0.0
2017-Dec-11 08:31N 35°03' E 136°53'1 1.4
2017-Dec-11 08:01N 35°03' E 136°53'0 0.0
2017-Dec-11 07:26N 35°03' E 136°53'0 0.0
2017-Dec-11 06:50N 35°03' E 136°53'0 0.0
2017-Dec-11 06:26N 35°03' E 136°53'0 0.0
2017-Dec-11 05:56N 35°03' E 136°53'0 0.0
2017-Dec-11 05:26N 35°03' E 136°53'0 0.0
2017-Dec-11 04:56N 35°03' E 136°53'0 0.0
2017-Dec-11 04:26N 35°03' E 136°53'0 0.0
2017-Dec-11 03:56N 35°03' E 136°53'0 0.3
2017-Dec-11 03:30N 35°03' E 136°53'5 9.5
2017-Dec-11 03:00N 35°00' E 136°48'5 9.0
2017-Dec-11 02:30N 34°56' E 136°45'714.4
2017-Dec-11 02:00N 34°49' E 136°48'815.8
2017-Dec-11 01:30N 34°42' E 136°52'1115.0
2017-Dec-11 00:48N 34°41' E 137°05'517.2
2017-Dec-11 00:30N 34°43' E 137°11'612.1
2017-Dec-10 23:59N 34°43' E 137°18'0 0.1
2017-Dec-10 21:27N 34°43' E 137°18'2 5.0
2017-Dec-10 21:01N 34°44' E 137°16'3 5.5
2017-Dec-10 20:27N 34°44' E 137°12'0 0.0
2017-Dec-10 19:57N 34°44' E 137°12'0 0.1
2017-Dec-10 19:27N 34°43' E 137°12'4 8.3
2017-Dec-10 19:00N 34°42' E 137°08'918.2
2017-Dec-10 18:30N 34°37' E 136°58'612.6
2017-Dec-10 18:00N 34°32' E 137°03'816.0
2017-Dec-10 17:30N 34°32' E 137°13'2617.1
2017-Dec-10 16:01N 34°32' E 137°44'317.7
2017-Dec-10 15:52N 34°31' E 137°47'717.2
2017-Dec-10 15:26N 34°31' E 137°56'717.0
2017-Dec-10 15:00N 34°31' E 138°05'916.3
2017-Dec-10 14:27N 34°31' E 138°16'816.5
2017-Dec-10 13:59N 34°33' E 138°25'816.5
2017-Dec-10 13:30N 34°32' E 138°35'816.2
2017-Dec-10 12:59N 34°32' E 138°45'816.3
2017-Dec-10 12:29N 34°33' E 138°55'815.9
2017-Dec-10 11:58N 34°37' E 139°03'1016.6
2017-Dec-10 11:21N 34°44' E 139°12'615.7
2017-Dec-10 10:58N 34°48' E 139°18'714.9
2017-Dec-10 10:30N 34°53' E 139°24'714.8
2017-Dec-10 10:00N 34°58' E 139°30'815.8
2017-Dec-10 09:30N 35°03' E 139°38'816.6
2017-Dec-10 09:00N 35°09' E 139°45'713.5
2017-Dec-10 08:30N 35°15' E 139°46'612.3
2017-Dec-10 08:01N 35°20' E 139°42'4 8.0
2017-Dec-10 07:31N 35°23' E 139°39'0 0.0
2017-Dec-10 06:56N 35°23' E 139°39'0 0.0
2017-Dec-10 06:29N 35°23' E 139°39'0 0.0
2017-Dec-10 05:59N 35°23' E 139°39'0 0.0
2017-Dec-10 05:29N 35°23' E 139°39'0 0.0
2017-Dec-10 04:59N 35°23' E 139°39'0 0.0
2017-Dec-10 04:29N 35°23' E 139°39'0 0.0
2017-Dec-10 03:59N 35°23' E 139°39'0 0.0
2017-Dec-10 03:29N 35°23' E 139°39'0 0.0
2017-Dec-10 03:00N 35°23' E 139°39'3 6.7
2017-Dec-10 02:30N 35°22' E 139°42'612.9
2017-Dec-10 02:01N 35°16' E 139°46'714.0
2017-Dec-10 01:30N 35°09' E 139°46'1019.8
2017-Dec-10 01:01N 34°60' E 139°44'917.1
2017-Dec-10 00:29N 34°52' E 139°50'916.6
2017-Dec-09 23:56N 34°55' E 140°01'1018.1
2017-Dec-09 23:24N 34°60' E 140°11'717.8
2017-Dec-09 22:59N 35°03' E 140°19'12 0.4
2017-Dec-08 14:31N 35°11' E 140°31'818.5
2017-Dec-08 14:05N 35°05' E 140°23'220.1
2017-Dec-08 13:58N 35°04' E 140°21'1020.5
2017-Dec-08 13:29N 34°60' E 140°10'919.1
2017-Dec-08 13:01N 34°55' E 140°01'917.7
2017-Dec-08 12:28N 34°53' E 139°50'919.9
2017-Dec-08 12:01N 35°00' E 139°43'1019.1
2017-Dec-08 11:31N 35°10' E 139°45'713.4
2017-Dec-08 11:00N 35°16' E 139°46'713.9
2017-Dec-08 10:31N 35°23' E 139°42'917.1
2017-Dec-08 10:01N 35°30' E 139°48'1 2.6
2017-Dec-08 09:28N 35°30' E 139°46'0 0.0
2017-Dec-08 08:58N 35°30' E 139°46'0 0.0
2017-Dec-08 08:22N 35°30' E 139°46'0 0.0
2017-Dec-08 07:55N 35°30' E 139°46'0 0.0
2017-Dec-08 07:28N 35°30' E 139°46'0 0.0
2017-Dec-08 06:58N 35°30' E 139°46'0 0.0
2017-Dec-08 06:25N 35°30' E 139°46'0 0.0
2017-Dec-08 05:58N 35°30' E 139°46'2 3.8
2017-Dec-08 05:30N 35°30' E 139°44'4 8.9
2017-Dec-08 05:00N 35°25' E 139°43'4 7.3
2017-Dec-08 04:29N 35°23' E 139°39'0 0.0
2017-Dec-08 03:58N 35°23' E 139°39'0 0.0
2017-Dec-08 03:28N 35°23' E 139°39'0 0.0
2017-Dec-08 02:58N 35°23' E 139°39'0 0.0
2017-Dec-08 02:28N 35°23' E 139°39'0 0.0
2017-Dec-08 01:58N 35°23' E 139°39'0 0.0
2017-Dec-08 01:28N 35°23' E 139°39'0 0.0
2017-Dec-08 00:58N 35°23' E 139°39'0 0.0
2017-Dec-08 00:28N 35°23' E 139°39'0 0.0
2017-Dec-07 23:58N 35°23' E 139°39'0 0.0
2017-Dec-07 23:28N 35°23' E 139°39'0 0.0
2017-Dec-07 22:58N 35°23' E 139°39'0 0.0
2017-Dec-07 22:28N 35°23' E 139°39'0 0.2
2017-Dec-07 22:00N 35°23' E 139°39'5 9.4
2017-Dec-07 21:30N 35°20' E 139°43'612.8
2017-Dec-07 21:00N 35°15' E 139°47'816.4
2017-Dec-07 20:31N 35°07' E 139°45'1020.1
2017-Dec-07 20:01N 34°60' E 139°36'1122.6
2017-Dec-07 19:31N 34°53' E 139°24'1122.3
2017-Dec-07 19:00N 34°46' E 139°15'1120.9
2017-Dec-07 18:30N 34°38' E 139°05'1120.9
2017-Dec-07 17:59N 34°32' E 138°55'1121.7
2017-Dec-07 17:30N 34°31' E 138°42'1221.9
2017-Dec-07 16:59N 34°31' E 138°28'1121.8
2017-Dec-07 16:29N 34°31' E 138°15'1020.8
2017-Dec-07 16:00N 34°31' E 138°03'1019.8
2017-Dec-07 15:30N 34°31' E 137°51'2220.1
2017-Dec-07 14:26N 34°31' E 137°24'920.3
2017-Dec-07 14:00N 34°31' E 137°14'918.7
2017-Dec-07 13:30N 34°32' E 137°03'815.9
2017-Dec-07 12:59N 34°37' E 136°55'1020.2
2017-Dec-07 12:30N 34°44' E 136°47'1019.7
2017-Dec-07 12:00N 34°54' E 136°46'917.9
2017-Dec-07 11:30N 35°02' E 136°51'2 3.6
2017-Dec-07 10:59N 35°03' E 136°53'0 0.0
2017-Dec-07 10:29N 35°03' E 136°53'0 0.0
2017-Dec-07 09:59N 35°03' E 136°53'0 0.0
2017-Dec-07 09:29N 35°03' E 136°53'0 0.0
2017-Dec-07 09:00N 35°03' E 136°53'1 1.4
2017-Dec-07 08:30N 35°03' E 136°53'0 0.0
2017-Dec-07 08:00N 35°03' E 136°53'0 0.0
2017-Dec-07 07:30N 35°03' E 136°53'0 0.0
2017-Dec-07 07:00N 35°03' E 136°53'0 0.0
2017-Dec-07 06:30N 35°03' E 136°53'0 0.0
2017-Dec-07 06:00N 35°03' E 136°53'0 0.0
2017-Dec-07 05:30N 35°03' E 136°53'0 0.0
2017-Dec-07 05:00N 35°03' E 136°53'0 0.0
2017-Dec-07 04:18N 35°03' E 136°53'0 0.0
2017-Dec-07 04:00N 35°03' E 136°53'3 5.8
2017-Dec-07 03:30N 35°01' E 136°50'4 8.9
2017-Dec-07 03:00N 34°58' E 136°46'919.0
2017-Dec-07 02:31N 34°49' E 136°47'1019.0
2017-Dec-07 02:00N 34°41' E 136°54'1017.2
2017-Dec-07 01:27N 34°41' E 137°05'818.9
2017-Dec-07 01:00N 34°44' E 137°15'3 0.7
2017-Dec-06 21:14N 34°44' E 137°18'211.1
2017-Dec-06 21:00N 34°44' E 137°15'  
Track history (hours):
 
Tides and Currents Weather Stations Pressure Air Temp Water Temp Dewpoint Dewpoint Depression Visibility Wind Speed Wind Dir Waves Ship Positions

Housho Maru

Last reported at 2017-Dec-15 07:59 UTC. Time now 2017-Dec-15 08:26 UTC.
Position N 35°03' E 136°53'.

Length 165 m; draft 6.2 m.

Type: Cargo ship. MMSI: 431200703.

Date/timePositionNaut miles runAvg speedWind from/ knotsBaromVisibWave heightAir tempDewpointWater temp
2017-Dec-15 07:59N 35°03' E 136°53'0 0.0
2017-Dec-15 07:29N 35°03' E 136°53'0 0.0
2017-Dec-15 06:59N 35°03' E 136°53'0 0.0
2017-Dec-15 06:29N 35°03' E 136°53'0 0.0
2017-Dec-15 05:59N 35°03' E 136°53'0 0.0
2017-Dec-15 05:29N 35°03' E 136°53'0 0.0
2017-Dec-15 04:59N 35°03' E 136°53'2 4.3
2017-Dec-15 04:30N 35°02' E 136°51'1019.1
2017-Dec-15 04:00N 34°53' E 136°47'2314.8
2017-Dec-15 02:29N 34°43' E 137°12'12 1.5
2017-Dec-14 18:28N 34°33' E 137°05'817.0
2017-Dec-14 18:00N 34°32' E 137°15'2117.0
2017-Dec-14 16:48N 34°32' E 137°40'516.7
2017-Dec-14 16:30N 34°32' E 137°46'816.9
2017-Dec-14 16:00N 34°31' E 137°56'1716.5
2017-Dec-14 15:00N 34°31' E 138°16'916.6
2017-Dec-14 14:29N 34°32' E 138°27'815.9
2017-Dec-14 14:00N 34°32' E 138°36'815.1
2017-Dec-14 13:30N 34°32' E 138°45'815.1
2017-Dec-14 13:00N 34°32' E 138°54'815.0
2017-Dec-14 12:30N 34°36' E 139°02'816.5
2017-Dec-14 12:00N 34°41' E 139°09'815.3
2017-Dec-14 11:30N 34°47' E 139°16'815.4
2017-Dec-14 11:00N 34°52' E 139°23'816.6
2017-Dec-14 10:30N 34°58' E 139°30'816.8
2017-Dec-14 10:00N 35°03' E 139°38'917.5
2017-Dec-14 09:30N 35°10' E 139°45'713.3
2017-Dec-14 09:00N 35°16' E 139°46'611.8
2017-Dec-14 08:30N 35°21' E 139°42'3 6.2
2017-Dec-14 08:00N 35°23' E 139°39'0 0.0
2017-Dec-14 07:30N 35°23' E 139°39'0 0.0
2017-Dec-14 06:59N 35°23' E 139°39'0 0.0
2017-Dec-14 06:30N 35°23' E 139°39'0 0.0
2017-Dec-14 06:00N 35°23' E 139°39'0 0.0
2017-Dec-14 05:30N 35°23' E 139°39'0 0.0
2017-Dec-14 04:59N 35°23' E 139°39'0 0.0
2017-Dec-14 04:30N 35°23' E 139°39'0 0.0
2017-Dec-14 03:59N 35°23' E 139°39'0 0.0
2017-Dec-14 03:30N 35°23' E 139°39'0 0.0
2017-Dec-14 03:00N 35°23' E 139°39'0 0.0
2017-Dec-14 02:30N 35°23' E 139°39'0 0.0
2017-Dec-14 02:00N 35°23' E 139°39'0 0.0
2017-Dec-14 01:29N 35°23' E 139°39'0 0.0
2017-Dec-14 01:00N 35°23' E 139°39'1 1.4
2017-Dec-14 00:31N 35°24' E 139°40'713.1
2017-Dec-14 00:00N 35°18' E 139°44'611.8
2017-Dec-13 23:30N 35°13' E 139°47'815.6
2017-Dec-13 23:00N 35°05' E 139°45'816.0
2017-Dec-13 22:30N 34°57' E 139°44'815.5
2017-Dec-13 22:00N 34°51' E 139°50'917.5
2017-Dec-13 21:28N 34°54' E 140°01'1018.2
2017-Dec-13 20:56N 34°59' E 140°11'8 0.3
2017-Dec-12 13:13N 35°04' E 140°20'521.9
2017-Dec-12 13:00N 35°02' E 140°15'1121.5
2017-Dec-12 12:30N 34°55' E 140°04'1120.8
2017-Dec-12 12:00N 34°51' E 139°52'1019.2
2017-Dec-12 11:28N 34°58' E 139°43'918.7
2017-Dec-12 11:01N 35°06' E 139°44'815.3
2017-Dec-12 10:30N 35°14' E 139°46'612.2
2017-Dec-12 10:00N 35°19' E 139°43'612.2
2017-Dec-12 09:30N 35°25' E 139°44'510.8
2017-Dec-12 09:00N 35°30' E 139°46'0 0.1
2017-Dec-12 08:29N 35°30' E 139°46'0 0.0
2017-Dec-12 07:58N 35°30' E 139°46'0 0.0
2017-Dec-12 07:29N 35°30' E 139°46'0 0.0
2017-Dec-12 06:59N 35°30' E 139°46'0 0.0
2017-Dec-12 06:16N 35°30' E 139°46'0 0.0
2017-Dec-12 05:59N 35°30' E 139°46'0 0.0
2017-Dec-12 05:30N 35°30' E 139°46'3 5.3
2017-Dec-12 05:01N 35°29' E 139°43'3 6.7
2017-Dec-12 04:30N 35°26' E 139°43'4 8.2
2017-Dec-12 04:00N 35°23' E 139°39'0 0.1
2017-Dec-12 03:30N 35°23' E 139°39'0 0.0
2017-Dec-12 03:00N 35°23' E 139°39'0 0.0
2017-Dec-12 02:30N 35°23' E 139°39'0 0.0
2017-Dec-12 01:57N 35°23' E 139°39'0 0.0
2017-Dec-12 01:27N 35°23' E 139°39'0 0.0
2017-Dec-12 01:00N 35°23' E 139°39'0 0.0
2017-Dec-12 00:27N 35°23' E 139°39'0 0.0
2017-Dec-12 00:00N 35°23' E 139°39'0 0.0
2017-Dec-11 23:30N 35°23' E 139°39'0 0.0
2017-Dec-11 22:57N 35°23' E 139°39'0 0.0
2017-Dec-11 22:30N 35°23' E 139°39'0 0.9
2017-Dec-11 22:00N 35°24' E 139°39'510.7
2017-Dec-11 21:30N 35°20' E 139°43'612.0
2017-Dec-11 21:00N 35°14' E 139°47'815.5
2017-Dec-11 20:30N 35°07' E 139°44'817.1
2017-Dec-11 20:01N 35°01' E 139°37'917.5
2017-Dec-11 19:31N 34°55' E 139°29'1019.1
2017-Dec-11 19:00N 34°49' E 139°20'1218.9
2017-Dec-11 18:23N 34°41' E 139°09'819.0
2017-Dec-11 17:59N 34°36' E 139°02'918.9
2017-Dec-11 17:31N 34°32' E 138°53'1020.1
2017-Dec-11 16:59N 34°31' E 138°40'1019.9
2017-Dec-11 16:30N 34°31' E 138°28'1019.6
2017-Dec-11 16:01N 34°31' E 138°17'1119.9
2017-Dec-11 15:28N 34°31' E 138°03'1119.7
2017-Dec-11 14:54N 34°31' E 137°50'919.2
2017-Dec-11 14:28N 34°31' E 137°40'1319.5
2017-Dec-11 13:48N 34°32' E 137°24'619.8
2017-Dec-11 13:30N 34°32' E 137°17'1019.7
2017-Dec-11 13:00N 34°32' E 137°05'612.9
2017-Dec-11 12:30N 34°35' E 136°58'714.0
2017-Dec-11 12:00N 34°39' E 136°51'1020.0
2017-Dec-11 11:31N 34°48' E 136°46'1019.3
2017-Dec-11 11:00N 34°58' E 136°48'713.9
2017-Dec-11 10:30N 35°03' E 136°53'0 0.4
2017-Dec-11 09:55N 35°03' E 136°53'0 0.0
2017-Dec-11 09:25N 35°03' E 136°53'0 0.0
2017-Dec-11 08:55N 35°03' E 136°53'0 0.0
2017-Dec-11 08:31N 35°03' E 136°53'1 1.4
2017-Dec-11 08:01N 35°03' E 136°53'0 0.0
2017-Dec-11 07:26N 35°03' E 136°53'0 0.0
2017-Dec-11 06:50N 35°03' E 136°53'0 0.0
2017-Dec-11 06:26N 35°03' E 136°53'0 0.0
2017-Dec-11 05:56N 35°03' E 136°53'0 0.0
2017-Dec-11 05:26N 35°03' E 136°53'0 0.0
2017-Dec-11 04:56N 35°03' E 136°53'0 0.0
2017-Dec-11 04:26N 35°03' E 136°53'0 0.0
2017-Dec-11 03:56N 35°03' E 136°53'0 0.3
2017-Dec-11 03:30N 35°03' E 136°53'5 9.5
2017-Dec-11 03:00N 35°00' E 136°48'5 9.0
2017-Dec-11 02:30N 34°56' E 136°45'714.4
2017-Dec-11 02:00N 34°49' E 136°48'815.8
2017-Dec-11 01:30N 34°42' E 136°52'1115.0
2017-Dec-11 00:48N 34°41' E 137°05'517.2
2017-Dec-11 00:30N 34°43' E 137°11'612.1
2017-Dec-10 23:59N 34°43' E 137°18'0 0.1
2017-Dec-10 21:27N 34°43' E 137°18'2 5.0
2017-Dec-10 21:01N 34°44' E 137°16'3 5.5
2017-Dec-10 20:27N 34°44' E 137°12'0 0.0
2017-Dec-10 19:57N 34°44' E 137°12'0 0.1
2017-Dec-10 19:27N 34°43' E 137°12'4 8.3
2017-Dec-10 19:00N 34°42' E 137°08'918.2
2017-Dec-10 18:30N 34°37' E 136°58'612.6
2017-Dec-10 18:00N 34°32' E 137°03'816.0
2017-Dec-10 17:30N 34°32' E 137°13'2617.1
2017-Dec-10 16:01N 34°32' E 137°44'317.7
2017-Dec-10 15:52N 34°31' E 137°47'717.2
2017-Dec-10 15:26N 34°31' E 137°56'717.0
2017-Dec-10 15:00N 34°31' E 138°05'916.3
2017-Dec-10 14:27N 34°31' E 138°16'816.5
2017-Dec-10 13:59N 34°33' E 138°25'816.5
2017-Dec-10 13:30N 34°32' E 138°35'816.2
2017-Dec-10 12:59N 34°32' E 138°45'816.3
2017-Dec-10 12:29N 34°33' E 138°55'815.9
2017-Dec-10 11:58N 34°37' E 139°03'1016.6
2017-Dec-10 11:21N 34°44' E 139°12'615.7
2017-Dec-10 10:58N 34°48' E 139°18'714.9
2017-Dec-10 10:30N 34°53' E 139°24'714.8
2017-Dec-10 10:00N 34°58' E 139°30'815.8
2017-Dec-10 09:30N 35°03' E 139°38'816.6
2017-Dec-10 09:00N 35°09' E 139°45'713.5
2017-Dec-10 08:30N 35°15' E 139°46'612.3
2017-Dec-10 08:01N 35°20' E 139°42'4 8.0
2017-Dec-10 07:31N 35°23' E 139°39'0 0.0
2017-Dec-10 06:56N 35°23' E 139°39'0 0.0
2017-Dec-10 06:29N 35°23' E 139°39'0 0.0
2017-Dec-10 05:59N 35°23' E 139°39'0 0.0
2017-Dec-10 05:29N 35°23' E 139°39'0 0.0
2017-Dec-10 04:59N 35°23' E 139°39'0 0.0
2017-Dec-10 04:29N 35°23' E 139°39'0 0.0
2017-Dec-10 03:59N 35°23' E 139°39'0 0.0
2017-Dec-10 03:29N 35°23' E 139°39'0 0.0
2017-Dec-10 03:00N 35°23' E 139°39'3 6.7
2017-Dec-10 02:30N 35°22' E 139°42'612.9
2017-Dec-10 02:01N 35°16' E 139°46'714.0
2017-Dec-10 01:30N 35°09' E 139°46'1019.8
2017-Dec-10 01:01N 34°60' E 139°44'917.1
2017-Dec-10 00:29N 34°52' E 139°50'916.6
2017-Dec-09 23:56N 34°55' E 140°01'1018.1
2017-Dec-09 23:24N 34°60' E 140°11'717.8
2017-Dec-09 22:59N 35°03' E 140°19'12 0.4
2017-Dec-08 14:31N 35°11' E 140°31'818.5
2017-Dec-08 14:05N 35°05' E 140°23'220.1
2017-Dec-08 13:58N 35°04' E 140°21'1020.5
2017-Dec-08 13:29N 34°60' E 140°10'919.1
2017-Dec-08 13:01N 34°55' E 140°01'917.7
2017-Dec-08 12:28N 34°53' E 139°50'919.9
2017-Dec-08 12:01N 35°00' E 139°43'1019.1
2017-Dec-08 11:31N 35°10' E 139°45'713.4
2017-Dec-08 11:00N 35°16' E 139°46'713.9
2017-Dec-08 10:31N 35°23' E 139°42'917.1
2017-Dec-08 10:01N 35°30' E 139°48'1 2.6
2017-Dec-08 09:28N 35°30' E 139°46'0 0.0
2017-Dec-08 08:58N 35°30' E 139°46'0 0.0
2017-Dec-08 08:22N 35°30' E 139°46'0 0.0
2017-Dec-08 07:55N 35°30' E 139°46'0 0.0
2017-Dec-08 07:28N 35°30' E 139°46'0 0.0
2017-Dec-08 06:58N 35°30' E 139°46'0 0.0
2017-Dec-08 06:25N 35°30' E 139°46'0 0.0
2017-Dec-08 05:58N 35°30' E 139°46'2 3.8
2017-Dec-08 05:30N 35°30' E 139°44'4 8.9
2017-Dec-08 05:00N 35°25' E 139°43'4 7.3
2017-Dec-08 04:29N 35°23' E 139°39'0 0.0
2017-Dec-08 03:58N 35°23' E 139°39'0 0.0
2017-Dec-08 03:28N 35°23' E 139°39'0 0.0
2017-Dec-08 02:58N 35°23' E 139°39'0 0.0
2017-Dec-08 02:28N 35°23' E 139°39'0 0.0
2017-Dec-08 01:58N 35°23' E 139°39'0 0.0
2017-Dec-08 01:28N 35°23' E 139°39'0 0.0
2017-Dec-08 00:58N 35°23' E 139°39'0 0.0
2017-Dec-08 00:28N 35°23' E 139°39'0 0.0
2017-Dec-07 23:58N 35°23' E 139°39'0 0.0
2017-Dec-07 23:28N 35°23' E 139°39'0 0.0
2017-Dec-07 22:58N 35°23' E 139°39'0 0.0
2017-Dec-07 22:28N 35°23' E 139°39'0 0.2
2017-Dec-07 22:00N 35°23' E 139°39'5 9.4
2017-Dec-07 21:30N 35°20' E 139°43'612.8
2017-Dec-07 21:00N 35°15' E 139°47'816.4
2017-Dec-07 20:31N 35°07' E 139°45'1020.1
2017-Dec-07 20:01N 34°60' E 139°36'1122.6
2017-Dec-07 19:31N 34°53' E 139°24'1122.3
2017-Dec-07 19:00N 34°46' E 139°15'1120.9
2017-Dec-07 18:30N 34°38' E 139°05'1120.9
2017-Dec-07 17:59N 34°32' E 138°55'1121.7
2017-Dec-07 17:30N 34°31' E 138°42'1221.9
2017-Dec-07 16:59N 34°31' E 138°28'1121.8
2017-Dec-07 16:29N 34°31' E 138°15'1020.8
2017-Dec-07 16:00N 34°31' E 138°03'1019.8
2017-Dec-07 15:30N 34°31' E 137°51'2220.1
2017-Dec-07 14:26N 34°31' E 137°24'920.3
2017-Dec-07 14:00N 34°31' E 137°14'918.7
2017-Dec-07 13:30N 34°32' E 137°03'815.9
2017-Dec-07 12:59N 34°37' E 136°55'1020.2
2017-Dec-07 12:30N 34°44' E 136°47'1019.7
2017-Dec-07 12:00N 34°54' E 136°46'917.9
2017-Dec-07 11:30N 35°02' E 136°51'2 3.6
2017-Dec-07 10:59N 35°03' E 136°53'0 0.0
2017-Dec-07 10:29N 35°03' E 136°53'0 0.0
2017-Dec-07 09:59N 35°03' E 136°53'0 0.0
2017-Dec-07 09:29N 35°03' E 136°53'0 0.0
2017-Dec-07 09:00N 35°03' E 136°53'1 1.4
2017-Dec-07 08:30N 35°03' E 136°53'0 0.0
2017-Dec-07 08:00N 35°03' E 136°53'0 0.0
2017-Dec-07 07:30N 35°03' E 136°53'0 0.0
2017-Dec-07 07:00N 35°03' E 136°53'0 0.0
2017-Dec-07 06:30N 35°03' E 136°53'0 0.0
2017-Dec-07 06:00N 35°03' E 136°53'0 0.0
2017-Dec-07 05:30N 35°03' E 136°53'0 0.0
2017-Dec-07 05:00N 35°03' E 136°53'0 0.0
2017-Dec-07 04:18N 35°03' E 136°53'0 0.0
2017-Dec-07 04:00N 35°03' E 136°53'3 5.8
2017-Dec-07 03:30N 35°01' E 136°50'4 8.9
2017-Dec-07 03:00N 34°58' E 136°46'919.0
2017-Dec-07 02:31N 34°49' E 136°47'1019.0
2017-Dec-07 02:00N 34°41' E 136°54'1017.2
2017-Dec-07 01:27N 34°41' E 137°05'818.9
2017-Dec-07 01:00N 34°44' E 137°15'3 0.7
2017-Dec-06 21:14N 34°44' E 137°18'211.1
2017-Dec-06 21:00N 34°44' E 137°15'  

Dump ship's entire track history